Meteo Giornale » Osservazioni meteo Stati Uniti (USA) » Vancouver Pearson Airpark
ore: 11:53 - Osservazioni Meteo Vancouver Pearson Airpark
Lat. 45° 37' N Lon. 122° 39' W Alt. 7 metri s.l.m.
18 °C
Coperto
Temp. 24 Ore
0 °C
30 °C
Est/Sud-Est
7.4 Km/h
Dew point 13 °C
Umidità 72 %
Visibilità 10 Km
Il sole sorge alle ore 06:32
Il sole tramonta alle ore 19:48
| Data e Ora | Cielo e Fenomeni | T °C | DP °C | Um. % | Pres. hPa | Vis. km | Vento km/h | |
|---|---|---|---|---|---|---|---|---|
| Oggi h: 11:53 | Coperto | 18 | 13 | 72 | 1012 | 10 | E/SE 7.4 | |
| Oggi h: 11:43 | Coperto | 17 | 13 | 77 | 1012 | 10 | N 0 | |
| Oggi h: 11:20 | Coperto | 16 | 13 | 82 | 1012 | 10 | N 0 | |
| Oggi h: 11:00 | Foschia | 16 | 14 | 87 | 1012 | 10 | N 0 | |
| Oggi h: 10:53 | Pioggia Foschia | 16 | 14 | 87 | 1012 | 2 | S 7.4 | |
| Oggi h: 09:53 | Coperto | 0 | 0 | 66 | 1012 | 10 | N 0 | |
| Oggi h: 09:43 | Coperto | 0 | 0 | 100 | 1012 | 10 | N 0 | |
| Oggi h: 09:31 | Coperto | 0 | 0 | 88 | 1012 | 13 | N 0 | |
| Oggi h: 09:22 | Foschia | 0 | 0 | 66 | 1012 | 5 | N 0 | |
| Oggi h: 09:01 | Coperto | 0 | 0 | 93 | 1012 | 12 | N 0 | |
| Oggi h: 08:53 | Coperto | 0 | 0 | 66 | 1012 | 12 | N 0 | |
| Oggi h: 07:53 | Coperto | 16 | 12 | 77 | 1012 | 10 | S/SO 7.4 | |
| Oggi h: 06:53 | Coperto | 16 | 12 | 77 | 1011 | 10 | S/SE 7.4 | |
| Oggi h: 05:53 | Coperto | 16 | 12 | 77 | 1011 | 10 | S/SE 7.4 | |
| Oggi h: 04:53 | Coperto | 16 | 12 | 77 | 1011 | 10 | SE 7.4 | |
| Oggi h: 03:53 | Molto Nuvoloso | 16 | 12 | 77 | 1011 | 10 | SE 9.3 | |
| Oggi h: 03:48 | Molto Nuvoloso | 16 | 12 | 77 | 1011 | 10 | SE 9.3 | |
| Oggi h: 02:53 | Sereno | 17 | 12 | 72 | 1011 | 10 | E/SE 7.4 | |
| Oggi h: 01:53 | Sereno | 17 | 12 | 72 | 1010 | 10 | E/SE 9.3 | |
| Oggi h: 00:53 | Sereno | 18 | 13 | 72 | 1010 | 10 | SE 7.4 | |
| Ieri h: 23:53 | Sereno | 19 | 13 | 68 | 1009 | 10 | N 7.4 | |
| Ieri h: 22:53 | Sereno | 22 | 13 | 56 | 1008 | 10 | N 0 | |
| Ieri h: 21:53 | Sereno | 23 | 13 | 53 | 1008 | 10 | N 5.5 | |
| Ieri h: 20:53 | Sereno | 26 | 12 | 41 | 1007 | 14 | N/NO 9.3 | |
| Ieri h: 19:53 | Foschia | 27 | 12 | 39 | 1007 | 10 | N 0 | |
| Ieri h: 18:53 | Sereno | 30 | 10 | 28 | 1006 | 10 | N 5.5 | |
| Ieri h: 17:53 | Sereno | 30 | 9 | 27 | 1006 | 10 | N 5.5 | |
| Ieri h: 16:53 | Sereno | 30 | 9 | 27 | 1007 | 10 | N 5.5 | |
| Ieri h: 15:53 | Sereno | 28 | 9 | 30 | 1007 | 10 | N 0 | |
| Ieri h: 14:53 | Sereno | 28 | 10 | 32 | 1008 | 10 | N 9.3 | |
| Ieri h: 13:53 | Sereno | 26 | 10 | 36 | 1008 | 10 | O 13 | |
| Ieri h: 12:53 | Sereno | 24 | 12 | 47 | 1009 | 10 | O 11.1 | |



